sensor_id;sensor_type;location;lat;lon;timestamp;pressure;altitude;pressure_sealevel;temperature;humidity
31873;BME280;22407;42.820;23.374;2023-11-19T00:00:11;95666.25;;;3.23;74.87
31873;BME280;22407;42.820;23.374;2023-11-19T00:02:38;95663.28;;;3.25;73.65
31873;BME280;22407;42.820;23.374;2023-11-19T00:05:04;95673.47;;;3.28;74.50
31873;BME280;22407;42.820;23.374;2023-11-19T00:07:29;95668.44;;;3.41;75.58
31873;BME280;22407;42.820;23.374;2023-11-19T00:09:55;95679.91;;;3.27;75.99
31873;BME280;22407;42.820;23.374;2023-11-19T00:12:20;95681.78;;;3.26;76.52
31873;BME280;22407;42.820;23.374;2023-11-19T00:14:47;95676.72;;;3.30;76.54
31873;BME280;22407;42.820;23.374;2023-11-19T00:17:13;95682.50;;;3.12;78.06
31873;BME280;22407;42.820;23.374;2023-11-19T00:19:38;95680.69;;;3.22;78.25
31873;BME280;22407;42.820;23.374;2023-11-19T00:22:04;95682.53;;;3.17;78.62
31873;BME280;22407;42.820;23.374;2023-11-19T00:24:30;95684.38;;;3.11;79.51
31873;BME280;22407;42.820;23.374;2023-11-19T00:26:56;95682.41;;;2.97;79.95
31873;BME280;22407;42.820;23.374;2023-11-19T00:29:22;95683.78;;;2.99;80.38
31873;BME280;22407;42.820;23.374;2023-11-19T00:31:47;95694.44;;;2.94;80.54
31873;BME280;22407;42.820;23.374;2023-11-19T00:34:13;95695.22;;;2.95;80.50
31873;BME280;22407;42.820;23.374;2023-11-19T00:36:39;95699.84;;;3.04;80.59
31873;BME280;22407;42.820;23.374;2023-11-19T00:39:04;95709.44;;;3.00;79.51
31873;BME280;22407;42.820;23.374;2023-11-19T00:41:31;95714.28;;;3.03;79.55
31873;BME280;22407;42.820;23.374;2023-11-19T00:43:56;95718.53;;;2.99;79.93
31873;BME280;22407;42.820;23.374;2023-11-19T00:46:22;95716.66;;;3.00;80.14
31873;BME280;22407;42.820;23.374;2023-11-19T00:48:47;95717.91;;;2.87;80.44
31873;BME280;22407;42.820;23.374;2023-11-19T00:51:12;95715.81;;;2.89;80.35
31873;BME280;22407;42.820;23.374;2023-11-19T00:53:38;95717.88;;;2.82;81.02
31873;BME280;22407;42.820;23.374;2023-11-19T00:56:04;95724.28;;;2.81;81.58
31873;BME280;22407;42.820;23.374;2023-11-19T00:58:29;95716.88;;;2.88;81.13
31873;BME280;22407;42.820;23.374;2023-11-19T01:00:55;95729.09;;;2.79;80.25
31873;BME280;22407;42.820;23.374;2023-11-19T01:03:22;95725.38;;;2.85;80.27
31873;BME280;22407;42.820;23.374;2023-11-19T01:05:48;95728.56;;;2.82;79.64
31873;BME280;22407;42.820;23.374;2023-11-19T01:08:13;95737.13;;;2.79;79.89
31873;BME280;22407;42.820;23.374;2023-11-19T01:10:41;95736.03;;;2.80;79.83
31873;BME280;22407;42.820;23.374;2023-11-19T01:13:06;95729.13;;;2.84;80.15
31873;BME280;22407;42.820;23.374;2023-11-19T01:15:32;95736.63;;;2.87;80.00
31873;BME280;22407;42.820;23.374;2023-11-19T01:17:58;95728.63;;;2.87;80.87
31873;BME280;22407;42.820;23.374;2023-11-19T01:20:24;95722.22;;;2.88;80.09
31873;BME280;22407;42.820;23.374;2023-11-19T01:22:50;95725.94;;;2.87;80.21
31873;BME280;22407;42.820;23.374;2023-11-19T01:25:16;95722.66;;;2.80;80.67
31873;BME280;22407;42.820;23.374;2023-11-19T01:27:41;95736.34;;;2.84;80.08
31873;BME280;22407;42.820;23.374;2023-11-19T01:30:08;95727.16;;;2.75;80.39
31873;BME280;22407;42.820;23.374;2023-11-19T01:32:35;95738.47;;;2.82;81.01
31873;BME280;22407;42.820;23.374;2023-11-19T01:35:03;95729.31;;;2.73;81.29
31873;BME280;22407;42.820;23.374;2023-11-19T01:37:29;95741.28;;;2.70;81.54
31873;BME280;22407;42.820;23.374;2023-11-19T01:39:54;95741.63;;;2.74;81.52
31873;BME280;22407;42.820;23.374;2023-11-19T01:42:20;95742.41;;;2.74;81.53
31873;BME280;22407;42.820;23.374;2023-11-19T01:44:59;95727.91;;;2.65;80.74
31873;BME280;22407;42.820;23.374;2023-11-19T01:47:27;95747.19;;;2.72;81.13
31873;BME280;22407;42.820;23.374;2023-11-19T01:49:54;95749.56;;;2.69;80.78
31873;BME280;22407;42.820;23.374;2023-11-19T01:52:20;95750.59;;;2.63;81.83
31873;BME280;22407;42.820;23.374;2023-11-19T01:54:46;95751.41;;;2.63;82.45
31873;BME280;22407;42.820;23.374;2023-11-19T01:57:13;95744.22;;;2.64;82.13
31873;BME280;22407;42.820;23.374;2023-11-19T01:59:39;95755.19;;;2.67;81.78
31873;BME280;22407;42.820;23.374;2023-11-19T02:02:05;95749.78;;;2.62;82.14
31873;BME280;22407;42.820;23.374;2023-11-19T02:04:31;95747.09;;;2.57;82.63
31873;BME280;22407;42.820;23.374;2023-11-19T02:06:58;95742.41;;;2.74;82.63
31873;BME280;22407;42.820;23.374;2023-11-19T02:09:24;95739.19;;;2.72;81.16
31873;BME280;22407;42.820;23.374;2023-11-19T02:11:49;95739.72;;;2.74;79.69
31873;BME280;22407;42.820;23.374;2023-11-19T02:14:24;95742.41;;;2.74;80.21
31873;BME280;22407;42.820;23.374;2023-11-19T02:16:51;95739.72;;;2.69;79.85
31873;BME280;22407;42.820;23.374;2023-11-19T02:19:19;95739.44;;;2.71;80.60
31873;BME280;22407;42.820;23.374;2023-11-19T02:21:45;95734.94;;;2.76;79.89
31873;BME280;22407;42.820;23.374;2023-11-19T02:24:12;95740.22;;;2.66;80.94
31873;BME280;22407;42.820;23.374;2023-11-19T02:26:47;95736.28;;;2.74;80.54
31873;BME280;22407;42.820;23.374;2023-11-19T02:29:17;95741.63;;;2.74;80.22
31873;BME280;22407;42.820;23.374;2023-11-19T02:31:43;95728.19;;;2.69;80.38
31873;BME280;22407;42.820;23.374;2023-11-19T02:34:10;95720.09;;;2.59;80.71
31873;BME280;22407;42.820;23.374;2023-11-19T02:36:37;95719.81;;;2.55;80.47
31873;BME280;22407;42.820;23.374;2023-11-19T02:39:03;95719.84;;;2.60;80.64
31873;BME280;22407;42.820;23.374;2023-11-19T02:41:29;95725.09;;;2.51;81.40
31873;BME280;22407;42.820;23.374;2023-11-19T02:43:54;95717.91;;;2.51;80.86
31873;BME280;22407;42.820;23.374;2023-11-19T02:46:20;95717.00;;;2.41;81.01
31873;BME280;22407;42.820;23.374;2023-11-19T02:48:45;95721.50;;;2.35;81.88
31873;BME280;22407;42.820;23.374;2023-11-19T02:51:11;95730.34;;;2.41;81.62
31873;BME280;22407;42.820;23.374;2023-11-19T02:53:37;95716.50;;;2.44;80.64
31873;BME280;22407;42.820;23.374;2023-11-19T02:56:03;95720.19;;;2.38;81.39
31873;BME280;22407;42.820;23.374;2023-11-19T02:58:37;95714.31;;;2.36;81.50
31873;BME280;22407;42.820;23.374;2023-11-19T03:01:03;95720.88;;;2.23;81.06
31873;BME280;22407;42.820;23.374;2023-11-19T03:03:38;95730.69;;;2.18;81.02
31873;BME280;22407;42.820;23.374;2023-11-19T03:06:06;95731.59;;;2.28;81.54
31873;BME280;22407;42.820;23.374;2023-11-19T03:08:32;95743.69;;;2.36;82.00
31873;BME280;22407;42.820;23.374;2023-11-19T03:10:58;95742.63;;;2.37;81.77
31873;BME280;22407;42.820;23.374;2023-11-19T03:13:24;95746.84;;;2.33;81.69
31873;BME280;22407;42.820;23.374;2023-11-19T03:15:49;95748.72;;;2.32;80.80
31873;BME280;22407;42.820;23.374;2023-11-19T03:18:15;95752.78;;;2.40;80.94
31873;BME280;22407;42.820;23.374;2023-11-19T03:20:40;95745.31;;;2.42;81.42
31873;BME280;22407;42.820;23.374;2023-11-19T03:23:06;95748.97;;;2.31;81.58
31873;BME280;22407;42.820;23.374;2023-11-19T03:25:32;95748.72;;;2.32;82.08
31873;BME280;22407;42.820;23.374;2023-11-19T03:28:02;95748.63;;;2.22;82.28
31873;BME280;22407;42.820;23.374;2023-11-19T03:30:29;95739.00;;;2.21;82.55
31873;BME280;22407;42.820;23.374;2023-11-19T03:32:58;95734.13;;;2.13;83.04
31873;BME280;22407;42.820;23.374;2023-11-19T03:35:24;95745.09;;;2.17;83.26
31873;BME280;22407;42.820;23.374;2023-11-19T03:37:50;95752.91;;;2.23;83.29
31873;BME280;22407;42.820;23.374;2023-11-19T03:40:17;95745.44;;;2.25;83.18
31873;BME280;22407;42.820;23.374;2023-11-19T03:42:46;95743.63;;;2.31;82.66
31873;BME280;22407;42.820;23.374;2023-11-19T03:45:12;95740.66;;;2.27;82.38
31873;BME280;22407;42.820;23.374;2023-11-19T03:47:38;95761.25;;;2.32;81.14
31873;BME280;22407;42.820;23.374;2023-11-19T03:50:05;95768.81;;;2.40;80.94
31873;BME280;22407;42.820;23.374;2023-11-19T03:52:30;95771.25;;;2.41;80.92
31873;BME280;22407;42.820;23.374;2023-11-19T03:54:56;95772.75;;;2.32;81.18
31873;BME280;22407;42.820;23.374;2023-11-19T03:57:24;95760.09;;;2.23;81.79
31873;BME280;22407;42.820;23.374;2023-11-19T03:59:50;95767.34;;;2.27;81.79
31873;BME280;22407;42.820;23.374;2023-11-19T04:02:16;95772.13;;;2.25;81.34
31873;BME280;22407;42.820;23.374;2023-11-19T04:04:42;95776.13;;;2.23;81.42
31873;BME280;22407;42.820;23.374;2023-11-19T04:07:07;95773.16;;;2.19;82.77
31873;BME280;22407;42.820;23.374;2023-11-19T04:09:33;95768.63;;;2.20;83.07
31873;BME280;22407;42.820;23.374;2023-11-19T04:11:59;95770.78;;;2.23;81.98
31873;BME280;22407;42.820;23.374;2023-11-19T04:14:26;95760.56;;;2.15;81.92
31873;BME280;22407;42.820;23.374;2023-11-19T04:16:52;95772.09;;;2.20;82.36
31873;BME280;22407;42.820;23.374;2023-11-19T04:19:19;95763.06;;;2.26;82.51
31873;BME280;22407;42.820;23.374;2023-11-19T04:21:45;95776.72;;;2.30;82.28
31873;BME280;22407;42.820;23.374;2023-11-19T04:24:11;95768.97;;;2.28;81.97
31873;BME280;22407;42.820;23.374;2023-11-19T04:26:43;95749.91;;;2.20;82.68
31873;BME280;22407;42.820;23.374;2023-11-19T04:29:14;95774.47;;;2.17;82.21
31873;BME280;22407;42.820;23.374;2023-11-19T04:31:40;95776.44;;;2.26;81.79
31873;BME280;22407;42.820;23.374;2023-11-19T04:34:06;95779.84;;;2.22;82.19
31873;BME280;22407;42.820;23.374;2023-11-19T04:36:33;95789.44;;;2.18;82.12
31873;BME280;22407;42.820;23.374;2023-11-19T04:39:00;95776.94;;;2.23;82.59
31873;BME280;22407;42.820;23.374;2023-11-19T04:41:26;95785.66;;;2.14;82.31
31873;BME280;22407;42.820;23.374;2023-11-19T04:43:53;95773.63;;;2.11;83.51
31873;BME280;22407;42.820;23.374;2023-11-19T04:46:19;95777.06;;;2.12;83.05
31873;BME280;22407;42.820;23.374;2023-11-19T04:48:45;95780.31;;;2.14;82.97
31873;BME280;22407;42.820;23.374;2023-11-19T04:51:10;95777.63;;;2.14;83.23
31873;BME280;22407;42.820;23.374;2023-11-19T04:53:35;95772.00;;;2.10;82.92
31873;BME280;22407;42.820;23.374;2023-11-19T04:56:07;95788.38;;;2.19;82.91
31873;BME280;22407;42.820;23.374;2023-11-19T04:58:33;95780.88;;;2.16;82.19
31873;BME280;22407;42.820;23.374;2023-11-19T05:00:59;95795.75;;;2.12;82.76
31873;BME280;22407;42.820;23.374;2023-11-19T05:03:24;95809.00;;;2.02;83.03
31873;BME280;22407;42.820;23.374;2023-11-19T05:05:50;95816.16;;;1.96;83.63
31873;BME280;22407;42.820;23.374;2023-11-19T05:08:15;95830.13;;;2.03;83.18
31873;BME280;22407;42.820;23.374;2023-11-19T05:10:41;95826.75;;;2.13;82.92
31873;BME280;22407;42.820;23.374;2023-11-19T05:13:06;95824.53;;;2.05;83.45
31873;BME280;22407;42.820;23.374;2023-11-19T05:15:32;95812.97;;;1.99;83.55
31873;BME280;22407;42.820;23.374;2023-11-19T05:17:58;95815.84;;;1.93;83.81
31873;BME280;22407;42.820;23.374;2023-11-19T05:20:24;95815.84;;;1.93;84.23
31873;BME280;22407;42.820;23.374;2023-11-19T05:22:49;95810.00;;;1.96;84.39
31873;BME280;22407;42.820;23.374;2023-11-19T05:25:16;95802.44;;;1.88;83.29
31873;BME280;22407;42.820;23.374;2023-11-19T05:27:42;95816.84;;;1.87;83.21
31873;BME280;22407;42.820;23.374;2023-11-19T05:30:07;95818.81;;;1.96;83.71
31873;BME280;22407;42.820;23.374;2023-11-19T05:32:34;95820.19;;;1.77;84.12
31873;BME280;22407;42.820;23.374;2023-11-19T05:34:59;95840.34;;;1.90;84.31
31873;BME280;22407;42.820;23.374;2023-11-19T05:37:25;95828.88;;;1.89;84.82
31873;BME280;22407;42.820;23.374;2023-11-19T05:39:50;95828.00;;;1.84;83.15
31873;BME280;22407;42.820;23.374;2023-11-19T05:42:16;95840.69;;;1.93;83.74
31873;BME280;22407;42.820;23.374;2023-11-19T05:44:42;95845.63;;;2.06;83.29
31873;BME280;22407;42.820;23.374;2023-11-19T05:47:08;95837.75;;;1.95;82.68
31873;BME280;22407;42.820;23.374;2023-11-19T05:49:33;95841.47;;;1.94;84.29
31873;BME280;22407;42.820;23.374;2023-11-19T05:51:59;95853.69;;;1.90;83.92
31873;BME280;22407;42.820;23.374;2023-11-19T05:54:25;95854.91;;;1.99;84.17
31873;BME280;22407;42.820;23.374;2023-11-19T05:56:51;95853.50;;;1.96;84.12
31873;BME280;22407;42.820;23.374;2023-11-19T05:59:19;95861.47;;;2.13;83.82
31873;BME280;22407;42.820;23.374;2023-11-19T06:01:45;95869.03;;;1.99;83.61
31873;BME280;22407;42.820;23.374;2023-11-19T06:04:10;95868.28;;;2.04;83.74
31873;BME280;22407;42.820;23.374;2023-11-19T06:06:36;95865.19;;;2.12;84.15
31873;BME280;22407;42.820;23.374;2023-11-19T06:09:03;95865.81;;;1.97;84.68
31873;BME280;22407;42.820;23.374;2023-11-19T06:11:29;95870.97;;;2.04;85.07
31873;BME280;22407;42.820;23.374;2023-11-19T06:13:55;95864.56;;;2.05;84.40
31873;BME280;22407;42.820;23.374;2023-11-19T06:16:21;95872.50;;;2.00;83.62
31873;BME280;22407;42.820;23.374;2023-11-19T06:18:47;95868.78;;;2.01;83.49
31873;BME280;22407;42.820;23.374;2023-11-19T06:21:12;95863.13;;;1.97;84.36
31873;BME280;22407;42.820;23.374;2023-11-19T06:23:38;95863.97;;;1.98;84.56
31873;BME280;22407;42.820;23.374;2023-11-19T06:26:03;95867.13;;;1.95;84.47
31873;BME280;22407;42.820;23.374;2023-11-19T06:28:31;95883.44;;;1.98;84.43
31873;BME280;22407;42.820;23.374;2023-11-19T06:30:56;95885.31;;;1.98;84.66
31873;BME280;22407;42.820;23.374;2023-11-19T06:33:26;95877.53;;;1.96;83.82
31873;BME280;22407;42.820;23.374;2023-11-19T06:35:52;95880.59;;;2.05;83.41
31873;BME280;22407;42.820;23.374;2023-11-19T06:38:21;95899.41;;;1.93;83.66
31873;BME280;22407;42.820;23.374;2023-11-19T06:40:46;95891.13;;;1.95;83.09
31873;BME280;22407;42.820;23.374;2023-11-19T06:43:12;95894.84;;;1.94;82.65
31873;BME280;22407;42.820;23.374;2023-11-19T06:45:37;95902.38;;;1.97;82.52
31873;BME280;22407;42.820;23.374;2023-11-19T06:48:03;95911.63;;;1.89;82.56
31873;BME280;22407;42.820;23.374;2023-11-19T06:50:30;95900.53;;;1.81;82.45
31873;BME280;22407;42.820;23.374;2023-11-19T06:52:56;95894.38;;;1.97;82.48
31873;BME280;22407;42.820;23.374;2023-11-19T06:55:21;95899.19;;;2.00;82.06
31873;BME280;22407;42.820;23.374;2023-11-19T06:57:47;95895.84;;;1.88;81.59
31873;BME280;22407;42.820;23.374;2023-11-19T07:00:12;95895.91;;;1.93;81.12
31873;BME280;22407;42.820;23.374;2023-11-19T07:02:38;95899.41;;;1.93;81.41
31873;BME280;22407;42.820;23.374;2023-11-19T07:05:05;95899.56;;;1.87;81.80
31873;BME280;22407;42.820;23.374;2023-11-19T07:07:31;95903.69;;;1.94;81.47
31873;BME280;22407;42.820;23.374;2023-11-19T07:09:58;95892.44;;;1.92;81.43
31873;BME280;22407;42.820;23.374;2023-11-19T07:12:23;95905.47;;;1.89;81.62
31873;BME280;22407;42.820;23.374;2023-11-19T07:14:49;95898.88;;;1.96;81.54
31873;BME280;22407;42.820;23.374;2023-11-19T07:17:15;95900.94;;;1.89;81.12
31873;BME280;22407;42.820;23.374;2023-11-19T07:19:40;95899.31;;;1.88;81.27
31873;BME280;22407;42.820;23.374;2023-11-19T07:22:06;95899.88;;;1.90;81.45
31873;BME280;22407;42.820;23.374;2023-11-19T07:24:32;95901.50;;;1.91;81.35
31873;BME280;22407;42.820;23.374;2023-11-19T07:26:58;95907.09;;;2.11;80.88
31873;BME280;22407;42.820;23.374;2023-11-19T07:29:23;95908.91;;;2.06;81.07
31873;BME280;22407;42.820;23.374;2023-11-19T07:31:49;95919.41;;;2.12;80.99
31873;BME280;22407;42.820;23.374;2023-11-19T07:34:15;95913.09;;;2.02;81.02
31873;BME280;22407;42.820;23.374;2023-11-19T07:36:40;95914.09;;;1.96;80.80
31873;BME280;22407;42.820;23.374;2023-11-19T07:39:06;95902.28;;;1.92;80.21
31873;BME280;22407;42.820;23.374;2023-11-19T07:41:32;95920.88;;;2.03;79.82
31873;BME280;22407;42.820;23.374;2023-11-19T07:43:58;95902.69;;;2.00;81.46
31873;BME280;22407;42.820;23.374;2023-11-19T07:46:23;95911.13;;;2.14;80.55
31873;BME280;22407;42.820;23.374;2023-11-19T07:48:50;95912.25;;;2.18;79.99
31873;BME280;22407;42.820;23.374;2023-11-19T07:51:16;95935.66;;;2.11;79.90
31873;BME280;22407;42.820;23.374;2023-11-19T07:53:41;95923.44;;;2.15;79.78
31873;BME280;22407;42.820;23.374;2023-11-19T07:56:08;95921.91;;;2.19;79.53
31873;BME280;22407;42.820;23.374;2023-11-19T07:58:33;95921.44;;;2.27;79.45
31873;BME280;22407;42.820;23.374;2023-11-19T08:00:59;95931.09;;;2.28;79.08
31873;BME280;22407;42.820;23.374;2023-11-19T08:03:25;95927.47;;;2.17;79.85
31873;BME280;22407;42.820;23.374;2023-11-19T08:05:50;95929.69;;;2.25;79.47
31873;BME280;22407;42.820;23.374;2023-11-19T08:08:16;95923.13;;;2.33;78.63
31873;BME280;22407;42.820;23.374;2023-11-19T08:10:42;95919.97;;;2.36;78.36
31873;BME280;22407;42.820;23.374;2023-11-19T08:13:08;95925.47;;;2.29;77.84
31873;BME280;22407;42.820;23.374;2023-11-19T08:15:34;95937.59;;;2.37;77.75
31873;BME280;22407;42.820;23.374;2023-11-19T08:17:59;95943.38;;;2.50;78.56
31873;BME280;22407;42.820;23.374;2023-11-19T08:20:25;95939.38;;;2.53;76.29
31873;BME280;22407;42.820;23.374;2023-11-19T08:22:50;95941.44;;;2.46;76.35
31873;BME280;22407;42.820;23.374;2023-11-19T08:25:16;95937.94;;;2.66;76.72
31873;BME280;22407;42.820;23.374;2023-11-19T08:27:41;95948.69;;;2.98;75.16
31873;BME280;22407;42.820;23.374;2023-11-19T08:30:08;95931.53;;;3.51;73.79
31873;BME280;22407;42.820;23.374;2023-11-19T08:32:34;95939.22;;;3.43;72.29
31873;BME280;22407;42.820;23.374;2023-11-19T08:35:00;95941.06;;;3.38;72.88
31873;BME280;22407;42.820;23.374;2023-11-19T08:37:26;95947.84;;;3.50;72.06
31873;BME280;22407;42.820;23.374;2023-11-19T08:39:52;95954.09;;;3.29;71.60
31873;BME280;22407;42.820;23.374;2023-11-19T08:42:18;95955.69;;;3.30;71.86
31873;BME280;22407;42.820;23.374;2023-11-19T08:44:43;95964.16;;;3.17;72.05
31873;BME280;22407;42.820;23.374;2023-11-19T08:47:12;95964.91;;;3.13;73.84
31873;BME280;22407;42.820;23.374;2023-11-19T08:49:39;95947.94;;;2.76;73.04
31873;BME280;22407;42.820;23.374;2023-11-19T08:52:05;95957.75;;;2.92;73.33
31873;BME280;22407;42.820;23.374;2023-11-19T08:54:32;95970.16;;;3.03;73.96
31873;BME280;22407;42.820;23.374;2023-11-19T08:56:58;95969.97;;;3.09;73.17
31873;BME280;22407;42.820;23.374;2023-11-19T08:59:25;95961.88;;;3.04;72.14
31873;BME280;22407;42.820;23.374;2023-11-19T09:01:50;95964.50;;;2.99;72.70
31873;BME280;22407;42.820;23.374;2023-11-19T09:04:16;95951.75;;;3.06;73.14
31873;BME280;22407;42.820;23.374;2023-11-19T09:06:42;95956.50;;;2.99;72.40
31873;BME280;22407;42.820;23.374;2023-11-19T09:09:08;95958.03;;;2.95;72.22
31873;BME280;22407;42.820;23.374;2023-11-19T09:11:35;95947.75;;;3.09;73.06
31873;BME280;22407;42.820;23.374;2023-11-19T09:14:00;95933.44;;;3.25;71.28
31873;BME280;22407;42.820;23.374;2023-11-19T09:16:25;95939.94;;;3.65;69.74
31873;BME280;22407;42.820;23.374;2023-11-19T09:18:51;95950.00;;;3.84;69.65
31873;BME280;22407;42.820;23.374;2023-11-19T09:21:16;95959.47;;;3.65;69.35
31873;BME280;22407;42.820;23.374;2023-11-19T09:23:43;95955.94;;;3.60;69.31
31873;BME280;22407;42.820;23.374;2023-11-19T09:26:09;95962.41;;;3.64;69.84
31873;BME280;22407;42.820;23.374;2023-11-19T09:28:37;95956.94;;;3.85;68.59
31873;BME280;22407;42.820;23.374;2023-11-19T09:31:03;95951.97;;;4.04;69.06
31873;BME280;22407;42.820;23.374;2023-11-19T09:33:31;95948.75;;;4.02;67.30
31873;BME280;22407;42.820;23.374;2023-11-19T09:35:57;95940.31;;;4.29;67.65
31873;BME280;22407;42.820;23.374;2023-11-19T09:38:23;95930.88;;;4.68;66.04
31873;BME280;22407;42.820;23.374;2023-11-19T09:40:48;95939.66;;;4.59;65.00
31873;BME280;22407;42.820;23.374;2023-11-19T09:43:15;95931.91;;;4.62;64.94
31873;BME280;22407;42.820;23.374;2023-11-19T09:45:50;95917.19;;;4.70;65.76
31873;BME280;22407;42.820;23.374;2023-11-19T09:48:19;95906.31;;;5.26;64.73
31873;BME280;22407;42.820;23.374;2023-11-19T09:50:48;95898.00;;;5.52;62.01
31873;BME280;22407;42.820;23.374;2023-11-19T09:53:14;95904.72;;;5.35;62.64
31873;BME280;22407;42.820;23.374;2023-11-19T09:55:41;95907.13;;;5.51;63.79
31873;BME280;22407;42.820;23.374;2023-11-19T09:58:07;95912.97;;;6.23;61.13
31873;BME280;22407;42.820;23.374;2023-11-19T10:00:33;95894.66;;;6.30;59.23
31873;BME280;22407;42.820;23.374;2023-11-19T10:02:59;95892.50;;;6.32;60.21
31873;BME280;22407;42.820;23.374;2023-11-19T10:05:25;95894.34;;;6.41;59.25
31873;BME280;22407;42.820;23.374;2023-11-19T10:07:52;95913.00;;;5.98;57.64
31873;BME280;22407;42.820;23.374;2023-11-19T10:10:17;95898.25;;;5.66;59.83
31873;BME280;22407;42.820;23.374;2023-11-19T10:12:47;95902.56;;;5.87;61.11
31873;BME280;22407;42.820;23.374;2023-11-19T10:15:24;95906.31;;;5.26;60.56
31873;BME280;22407;42.820;23.374;2023-11-19T10:17:55;95920.25;;;5.08;62.53
31873;BME280;22407;42.820;23.374;2023-11-19T10:20:21;95923.44;;;5.10;62.20
31873;BME280;22407;42.820;23.374;2023-11-19T10:22:47;95917.72;;;4.62;63.60
31873;BME280;22407;42.820;23.374;2023-11-19T10:25:25;95915.00;;;4.57;62.35
31873;BME280;22407;42.820;23.374;2023-11-19T10:27:51;95913.09;;;4.52;62.97
31873;BME280;22407;42.820;23.374;2023-11-19T10:30:20;95908.88;;;4.71;63.37
31873;BME280;22407;42.820;23.374;2023-11-19T10:33:12;95908.75;;;4.36;63.28
31873;BME280;22407;42.820;23.374;2023-11-19T10:35:56;95902.72;;;4.05;64.34
31873;BME280;22407;42.820;23.374;2023-11-19T10:38:22;95911.69;;;3.84;65.07
31873;BME280;22407;42.820;23.374;2023-11-19T10:40:48;95911.19;;;3.87;64.86
31873;BME280;22407;42.820;23.374;2023-11-19T10:43:16;95909.56;;;3.86;66.61
31873;BME280;22407;42.820;23.374;2023-11-19T10:45:42;95905.38;;;4.05;65.71
31873;BME280;22407;42.820;23.374;2023-11-19T10:48:08;95905.56;;;3.88;65.54
31873;BME280;22407;42.820;23.374;2023-11-19T10:50:40;95913.31;;;3.90;66.71
31873;BME280;22407;42.820;23.374;2023-11-19T10:53:08;95911.84;;;4.09;66.41
31873;BME280;22407;42.820;23.374;2023-11-19T10:55:35;95910.91;;;3.88;65.99
31873;BME280;22407;42.820;23.374;2023-11-19T10:58:02;95919.38;;;4.17;66.65
31873;BME280;22407;42.820;23.374;2023-11-19T11:00:30;95903.31;;;4.17;65.10
31873;BME280;22407;42.820;23.374;2023-11-19T11:03:00;95905.09;;;4.01;64.47
31873;BME280;22407;42.820;23.374;2023-11-19T11:05:27;95905.44;;;4.20;63.69
31873;BME280;22407;42.820;23.374;2023-11-19T11:07:55;95894.69;;;4.05;63.88
31873;BME280;22407;42.820;23.374;2023-11-19T11:10:25;95896.25;;;3.96;64.72
31873;BME280;22407;42.820;23.374;2023-11-19T11:12:52;95886.59;;;4.00;65.23
31873;BME280;22407;42.820;23.374;2023-11-19T11:15:26;95880.88;;;4.32;64.92
31873;BME280;22407;42.820;23.374;2023-11-19T11:17:56;95880.31;;;4.25;64.12
31873;BME280;22407;42.820;23.374;2023-11-19T11:20:23;95882.94;;;4.16;64.56
31873;BME280;22407;42.820;23.374;2023-11-19T11:28:59;95882.41;;;5.24;61.09
31873;BME280;22407;42.820;23.374;2023-11-19T11:31:51;95892.34;;;5.09;61.44
31873;BME280;22407;42.820;23.374;2023-11-19T11:34:43;95891.22;;;4.85;61.44
31873;BME280;22407;42.820;23.374;2023-11-19T11:37:17;95884.22;;;4.74;60.71
31873;BME280;22407;42.820;23.374;2023-11-19T11:39:46;95872.66;;;4.59;61.70
31873;BME280;22407;42.820;23.374;2023-11-19T11:55:33;95873.56;;;5.09;61.25
31873;BME280;22407;42.820;23.374;2023-11-19T11:58:00;95864.91;;;4.72;61.05
31873;BME280;22407;42.820;23.374;2023-11-19T12:00:32;95880.25;;;5.02;61.27
31873;BME280;22407;42.820;23.374;2023-11-19T12:03:02;95873.53;;;4.84;61.36
31873;BME280;22407;42.820;23.374;2023-11-19T12:05:27;95869.53;;;5.16;60.37
31873;BME280;22407;42.820;23.374;2023-11-19T12:07:57;95852.63;;;4.96;61.73
31873;BME280;22407;42.820;23.374;2023-11-19T12:10:29;95846.44;;;5.06;60.26
31873;BME280;22407;42.820;23.374;2023-11-19T12:13:00;95856.38;;;4.85;60.60
31873;BME280;22407;42.820;23.374;2023-11-19T12:15:26;95836.53;;;5.01;60.60
31873;BME280;22407;42.820;23.374;2023-11-19T12:17:54;95845.91;;;5.08;60.47
31873;BME280;22407;42.820;23.374;2023-11-19T12:20:21;95847.78;;;5.53;60.00
31873;BME280;22407;42.820;23.374;2023-11-19T12:22:49;95840.25;;;5.75;58.40
31873;BME280;22407;42.820;23.374;2023-11-19T12:25:15;95836.50;;;5.51;57.79
31873;BME280;22407;42.820;23.374;2023-11-19T12:27:51;95838.91;;;5.77;57.88
31873;BME280;22407;42.820;23.374;2023-11-19T12:30:24;95827.13;;;5.48;57.50
31873;BME280;22407;42.820;23.374;2023-11-19T12:32:50;95833.31;;;5.39;59.66
31873;BME280;22407;42.820;23.374;2023-11-19T12:35:16;95820.41;;;5.31;57.69
31873;BME280;22407;42.820;23.374;2023-11-19T12:37:46;95818.25;;;5.68;60.62
31873;BME280;22407;42.820;23.374;2023-11-19T12:40:19;95809.09;;;5.89;61.08
31873;BME280;22407;42.820;23.374;2023-11-19T12:42:46;95807.38;;;6.12;59.25
31873;BME280;22407;42.820;23.374;2023-11-19T12:45:14;95804.66;;;6.22;57.45
31873;BME280;22407;42.820;23.374;2023-11-19T12:47:44;95800.41;;;6.06;56.50
31873;BME280;22407;42.820;23.374;2023-11-19T12:50:12;95807.72;;;5.86;57.51
31873;BME280;22407;42.820;23.374;2023-11-19T12:52:38;95809.22;;;6.17;57.50
31873;BME280;22407;42.820;23.374;2023-11-19T12:55:05;95818.69;;;5.99;55.93
31873;BME280;22407;42.820;23.374;2023-11-19T12:57:38;95813.13;;;5.71;56.59
31873;BME280;22407;42.820;23.374;2023-11-19T13:00:05;95788.19;;;5.56;56.71
31873;BME280;22407;42.820;23.374;2023-11-19T13:02:48;95788.72;;;5.78;57.63
31873;BME280;22407;42.820;23.374;2023-11-19T13:05:40;95785.88;;;6.12;58.63
31873;BME280;22407;42.820;23.374;2023-11-19T13:08:07;95785.34;;;6.15;57.03
31873;BME280;22407;42.820;23.374;2023-11-19T13:10:49;95784.84;;;6.03;55.75
31873;BME280;22407;42.820;23.374;2023-11-19T13:13:16;95772.63;;;5.58;56.77
31873;BME280;22407;42.820;23.374;2023-11-19T13:15:42;95775.78;;;5.80;57.47
31873;BME280;22407;42.820;23.374;2023-11-19T13:18:10;95765.59;;;5.72;56.77